Main page
METAR-TAF:

METAR-TAF

Airports :

Gatwick Airport

London-Gatwick, England

latitude: 51-09N, longitude: 000-11W, elevation: 62 m

Current weather observation

The report was made 36 minutes ago, at 12:50 UTC
Wind 7 kt from the South, varying between Southeast and South/Southwest
Temperature 26°C
Humidity 54%
Pressure 1018 hPa
Visibility 10 km or more
Few clouds at a height of 3600 ft

METAR: EGKK 061250Z 18007KT 140V210 9999 FEW036 26/16 Q1018

Time: 14:26 (13:26 UTC)

Forecast

The report was made 2 hours and 28 minutes ago, at 10:58 UTC
Forecast valid from 06 at 12 UTC to 07 at 18 UTC
Wind 7 kt from the South/Southwest
Visibility 10 km or more
Scattered clouds at a height of 3500 ft
Probability 30%
from 07 at 02 UTC to 07 at 07 UTC
Visibility: 5000 m
mist

TAF: EGKK 061058Z 0612/0718 20007KT 9999 SCT035 PROB30 0702/0707 5000 BR

Weather observations and forecasts of more than 4000 airports (METAR and TAF reports).

The available stations are represented by yellow and red dots on the map.

Hover mouse over dot to see the name of the station.

Then click to see weather observations and forecasts.

To change the map : click on the green buttons with a black cross to zoom in, on the green button with a dash to zoom out, or on the green arrows for adjacent maps.


METAR-TAF: